sensor_id;sensor_type;location;lat;lon;timestamp;P1;durP1;ratioP1;P2;durP2;ratioP2
10711;SDS011;5407;51.234;6.804;2022-09-01T00:01:33;4.25;;;1.50;;
10711;SDS011;5407;51.234;6.804;2022-09-01T00:04:03;1.30;;;1.20;;
10711;SDS011;5407;51.234;6.804;2022-09-01T00:06:33;1.58;;;1.13;;
10711;SDS011;5407;51.234;6.804;2022-09-01T00:09:01;3.83;;;1.20;;
10711;SDS011;5407;51.234;6.804;2022-09-01T00:11:31;2.13;;;1.50;;
10711;SDS011;5407;51.234;6.804;2022-09-01T00:14:00;2.10;;;1.10;;
10711;SDS011;5407;51.234;6.804;2022-09-01T00:16:27;2.03;;;1.20;;
10711;SDS011;5407;51.234;6.804;2022-09-01T00:18:55;1.55;;;1.40;;
10711;SDS011;5407;51.234;6.804;2022-09-01T00:21:24;2.08;;;1.40;;
10711;SDS011;5407;51.234;6.804;2022-09-01T00:23:54;1.30;;;1.13;;
10711;SDS011;5407;51.234;6.804;2022-09-01T00:26:21;2.42;;;1.30;;
10711;SDS011;5407;51.234;6.804;2022-09-01T00:28:49;1.33;;;1.10;;
10711;SDS011;5407;51.234;6.804;2022-09-01T00:31:16;3.47;;;1.63;;
10711;SDS011;5407;51.234;6.804;2022-09-01T00:33:45;2.80;;;1.20;;
10711;SDS011;5407;51.234;6.804;2022-09-01T00:36:12;1.65;;;1.20;;
10711;SDS011;5407;51.234;6.804;2022-09-01T00:38:40;4.20;;;1.30;;
10711;SDS011;5407;51.234;6.804;2022-09-01T00:41:07;3.85;;;1.23;;
10711;SDS011;5407;51.234;6.804;2022-09-01T00:43:36;4.68;;;1.50;;
10711;SDS011;5407;51.234;6.804;2022-09-01T00:46:13;3.33;;;1.35;;
10711;SDS011;5407;51.234;6.804;2022-09-01T00:48:43;1.42;;;1.10;;
10711;SDS011;5407;51.234;6.804;2022-09-01T00:51:10;2.65;;;1.30;;
10711;SDS011;5407;51.234;6.804;2022-09-01T00:53:38;1.40;;;1.13;;
10711;SDS011;5407;51.234;6.804;2022-09-01T00:56:08;2.05;;;1.30;;
10711;SDS011;5407;51.234;6.804;2022-09-01T00:58:35;1.92;;;1.27;;
10711;SDS011;5407;51.234;6.804;2022-09-01T01:01:03;2.40;;;1.38;;
10711;SDS011;5407;51.234;6.804;2022-09-01T01:03:33;1.52;;;1.10;;
10711;SDS011;5407;51.234;6.804;2022-09-01T01:06:01;1.30;;;1.20;;
10711;SDS011;5407;51.234;6.804;2022-09-01T01:08:32;3.40;;;1.40;;
10711;SDS011;5407;51.234;6.804;2022-09-01T01:11:02;1.73;;;1.33;;
10711;SDS011;5407;51.234;6.804;2022-09-01T01:13:40;5.45;;;1.73;;
10711;SDS011;5407;51.234;6.804;2022-09-01T01:16:16;2.35;;;1.40;;
10711;SDS011;5407;51.234;6.804;2022-09-01T01:18:45;2.13;;;1.50;;
10711;SDS011;5407;51.234;6.804;2022-09-01T01:21:14;4.65;;;1.50;;
10711;SDS011;5407;51.234;6.804;2022-09-01T01:24:04;5.68;;;1.60;;
10711;SDS011;5407;51.234;6.804;2022-09-01T01:26:37;2.80;;;1.48;;
10711;SDS011;5407;51.234;6.804;2022-09-01T01:29:04;7.65;;;1.45;;
10711;SDS011;5407;51.234;6.804;2022-09-01T01:31:34;3.85;;;1.45;;
10711;SDS011;5407;51.234;6.804;2022-09-01T01:34:02;1.55;;;1.40;;
10711;SDS011;5407;51.234;6.804;2022-09-01T01:36:34;1.58;;;1.25;;
10711;SDS011;5407;51.234;6.804;2022-09-01T01:39:06;5.43;;;1.38;;
10711;SDS011;5407;51.234;6.804;2022-09-01T01:41:36;3.13;;;1.30;;
10711;SDS011;5407;51.234;6.804;2022-09-01T01:44:10;1.95;;;1.50;;
10711;SDS011;5407;51.234;6.804;2022-09-01T01:46:40;2.25;;;1.40;;
10711;SDS011;5407;51.234;6.804;2022-09-01T01:49:09;2.08;;;1.65;;
10711;SDS011;5407;51.234;6.804;2022-09-01T01:51:38;5.82;;;1.60;;
10711;SDS011;5407;51.234;6.804;2022-09-01T01:54:06;2.97;;;1.50;;
10711;SDS011;5407;51.234;6.804;2022-09-01T01:56:33;3.00;;;1.50;;
10711;SDS011;5407;51.234;6.804;2022-09-01T01:59:05;1.45;;;1.25;;
10711;SDS011;5407;51.234;6.804;2022-09-01T02:01:38;2.00;;;1.40;;
10711;SDS011;5407;51.234;6.804;2022-09-01T02:04:07;4.00;;;1.40;;
10711;SDS011;5407;51.234;6.804;2022-09-01T02:06:36;2.10;;;1.30;;
10711;SDS011;5407;51.234;6.804;2022-09-01T02:09:06;4.60;;;1.63;;
10711;SDS011;5407;51.234;6.804;2022-09-01T02:11:33;2.72;;;1.40;;
10711;SDS011;5407;51.234;6.804;2022-09-01T02:14:03;2.88;;;1.60;;
10711;SDS011;5407;51.234;6.804;2022-09-01T02:16:34;1.30;;;1.20;;
10711;SDS011;5407;51.234;6.804;2022-09-01T02:19:03;1.55;;;1.33;;
10711;SDS011;5407;51.234;6.804;2022-09-01T02:21:32;2.97;;;1.50;;
10711;SDS011;5407;51.234;6.804;2022-09-01T02:24:00;1.95;;;1.30;;
10711;SDS011;5407;51.234;6.804;2022-09-01T02:26:30;2.13;;;1.35;;
10711;SDS011;5407;51.234;6.804;2022-09-01T02:29:00;1.60;;;1.30;;
10711;SDS011;5407;51.234;6.804;2022-09-01T02:31:32;2.17;;;1.52;;
10711;SDS011;5407;51.234;6.804;2022-09-01T02:34:04;2.67;;;1.60;;
10711;SDS011;5407;51.234;6.804;2022-09-01T02:36:35;3.10;;;1.50;;
10711;SDS011;5407;51.234;6.804;2022-09-01T02:39:12;3.28;;;1.58;;
10711;SDS011;5407;51.234;6.804;2022-09-01T02:41:40;2.67;;;1.50;;
10711;SDS011;5407;51.234;6.804;2022-09-01T02:44:07;3.75;;;1.50;;
10711;SDS011;5407;51.234;6.804;2022-09-01T02:46:38;6.25;;;1.67;;
10711;SDS011;5407;51.234;6.804;2022-09-01T02:49:08;3.88;;;1.70;;
10711;SDS011;5407;51.234;6.804;2022-09-01T02:51:39;2.17;;;1.40;;
10711;SDS011;5407;51.234;6.804;2022-09-01T02:54:07;4.03;;;1.50;;
10711;SDS011;5407;51.234;6.804;2022-09-01T02:56:34;3.55;;;1.52;;
10711;SDS011;5407;51.234;6.804;2022-09-01T02:59:03;2.15;;;1.50;;
10711;SDS011;5407;51.234;6.804;2022-09-01T03:01:34;2.15;;;1.40;;
10711;SDS011;5407;51.234;6.804;2022-09-01T03:04:04;3.08;;;1.60;;
10711;SDS011;5407;51.234;6.804;2022-09-01T03:06:32;2.45;;;1.50;;
10711;SDS011;5407;51.234;6.804;2022-09-01T03:09:02;4.57;;;1.50;;
10711;SDS011;5407;51.234;6.804;2022-09-01T03:11:31;2.53;;;1.50;;
10711;SDS011;5407;51.234;6.804;2022-09-01T03:13:59;3.38;;;1.58;;
10711;SDS011;5407;51.234;6.804;2022-09-01T03:16:27;2.63;;;1.58;;
10711;SDS011;5407;51.234;6.804;2022-09-01T03:18:55;2.50;;;1.45;;
10711;SDS011;5407;51.234;6.804;2022-09-01T03:21:24;4.88;;;1.50;;
10711;SDS011;5407;51.234;6.804;2022-09-01T03:23:52;1.88;;;1.60;;
10711;SDS011;5407;51.234;6.804;2022-09-01T03:26:19;4.47;;;1.85;;
10711;SDS011;5407;51.234;6.804;2022-09-01T03:28:47;3.35;;;1.75;;
10711;SDS011;5407;51.234;6.804;2022-09-01T03:31:15;3.15;;;1.60;;
10711;SDS011;5407;51.234;6.804;2022-09-01T03:33:44;2.72;;;1.63;;
10711;SDS011;5407;51.234;6.804;2022-09-01T03:36:20;3.13;;;2.00;;
10711;SDS011;5407;51.234;6.804;2022-09-01T03:38:48;3.60;;;1.80;;
10711;SDS011;5407;51.234;6.804;2022-09-01T03:41:19;5.35;;;1.75;;
10711;SDS011;5407;51.234;6.804;2022-09-01T03:43:49;3.50;;;1.90;;
10711;SDS011;5407;51.234;6.804;2022-09-01T03:46:20;2.00;;;1.77;;
10711;SDS011;5407;51.234;6.804;2022-09-01T03:48:51;4.82;;;1.90;;
10711;SDS011;5407;51.234;6.804;2022-09-01T03:51:20;2.78;;;2.10;;
10711;SDS011;5407;51.234;6.804;2022-09-01T03:53:50;5.75;;;2.25;;
10711;SDS011;5407;51.234;6.804;2022-09-01T03:56:19;3.08;;;1.95;;
10711;SDS011;5407;51.234;6.804;2022-09-01T03:58:48;4.55;;;2.08;;
10711;SDS011;5407;51.234;6.804;2022-09-01T04:01:16;6.80;;;2.10;;
10711;SDS011;5407;51.234;6.804;2022-09-01T04:03:44;6.43;;;2.13;;
10711;SDS011;5407;51.234;6.804;2022-09-01T04:06:14;4.13;;;2.00;;
10711;SDS011;5407;51.234;6.804;2022-09-01T04:08:49;7.20;;;2.03;;
10711;SDS011;5407;51.234;6.804;2022-09-01T04:11:21;4.03;;;2.00;;
10711;SDS011;5407;51.234;6.804;2022-09-01T04:13:50;4.10;;;1.85;;
10711;SDS011;5407;51.234;6.804;2022-09-01T04:16:18;3.15;;;1.80;;
10711;SDS011;5407;51.234;6.804;2022-09-01T04:19:04;7.30;;;1.90;;
10711;SDS011;5407;51.234;6.804;2022-09-01T04:21:41;9.52;;;2.03;;
10711;SDS011;5407;51.234;6.804;2022-09-01T04:24:10;5.70;;;1.70;;
10711;SDS011;5407;51.234;6.804;2022-09-01T04:26:39;9.65;;;2.08;;
10711;SDS011;5407;51.234;6.804;2022-09-01T04:29:07;9.02;;;2.10;;
10711;SDS011;5407;51.234;6.804;2022-09-01T04:31:36;3.35;;;1.77;;
10711;SDS011;5407;51.234;6.804;2022-09-01T04:34:05;5.30;;;1.88;;
10711;SDS011;5407;51.234;6.804;2022-09-01T04:36:38;5.28;;;1.80;;
10711;SDS011;5407;51.234;6.804;2022-09-01T04:39:06;5.43;;;2.00;;
10711;SDS011;5407;51.234;6.804;2022-09-01T04:41:36;13.38;;;4.32;;
10711;SDS011;5407;51.234;6.804;2022-09-01T04:44:05;6.38;;;3.45;;
10711;SDS011;5407;51.234;6.804;2022-09-01T04:46:36;8.70;;;2.13;;
10711;SDS011;5407;51.234;6.804;2022-09-01T04:49:07;5.45;;;3.10;;
10711;SDS011;5407;51.234;6.804;2022-09-01T04:51:37;9.48;;;2.58;;
10711;SDS011;5407;51.234;6.804;2022-09-01T04:54:05;3.80;;;2.00;;
10711;SDS011;5407;51.234;6.804;2022-09-01T04:56:39;4.95;;;1.95;;
10711;SDS011;5407;51.234;6.804;2022-09-01T04:59:11;3.60;;;2.00;;
10711;SDS011;5407;51.234;6.804;2022-09-01T05:01:40;5.65;;;1.90;;
10711;SDS011;5407;51.234;6.804;2022-09-01T05:04:14;5.00;;;1.80;;
10711;SDS011;5407;51.234;6.804;2022-09-01T05:06:43;11.82;;;2.03;;
10711;SDS011;5407;51.234;6.804;2022-09-01T05:09:11;3.75;;;1.55;;
10711;SDS011;5407;51.234;6.804;2022-09-01T05:12:08;4.70;;;2.05;;
10711;SDS011;5407;51.234;6.804;2022-09-01T05:14:42;2.90;;;1.70;;
10711;SDS011;5407;51.234;6.804;2022-09-01T05:17:13;4.50;;;1.80;;
10711;SDS011;5407;51.234;6.804;2022-09-01T05:19:43;2.75;;;1.77;;
10711;SDS011;5407;51.234;6.804;2022-09-01T05:22:13;2.85;;;1.70;;
10711;SDS011;5407;51.234;6.804;2022-09-01T05:24:56;1.40;;;1.30;;
10711;SDS011;5407;51.234;6.804;2022-09-01T05:27:29;2.55;;;1.65;;
10711;SDS011;5407;51.234;6.804;2022-09-01T05:29:56;2.45;;;1.60;;
10711;SDS011;5407;51.234;6.804;2022-09-01T05:32:25;4.93;;;1.70;;
10711;SDS011;5407;51.234;6.804;2022-09-01T05:34:53;6.40;;;2.00;;
10711;SDS011;5407;51.234;6.804;2022-09-01T05:37:21;1.88;;;1.35;;
10711;SDS011;5407;51.234;6.804;2022-09-01T05:39:48;5.32;;;1.42;;
10711;SDS011;5407;51.234;6.804;2022-09-01T05:42:16;4.07;;;1.50;;
10711;SDS011;5407;51.234;6.804;2022-09-01T05:44:45;2.20;;;1.42;;
10711;SDS011;5407;51.234;6.804;2022-09-01T05:47:14;7.07;;;1.60;;
10711;SDS011;5407;51.234;6.804;2022-09-01T05:49:41;5.95;;;1.63;;
10711;SDS011;5407;51.234;6.804;2022-09-01T05:52:09;2.35;;;1.50;;
10711;SDS011;5407;51.234;6.804;2022-09-01T05:54:37;7.18;;;1.27;;
10711;SDS011;5407;51.234;6.804;2022-09-01T05:57:05;4.53;;;1.77;;
10711;SDS011;5407;51.234;6.804;2022-09-01T05:59:32;1.40;;;1.30;;
10711;SDS011;5407;51.234;6.804;2022-09-01T06:02:07;2.58;;;1.50;;
10711;SDS011;5407;51.234;6.804;2022-09-01T06:04:37;7.00;;;1.50;;
10711;SDS011;5407;51.234;6.804;2022-09-01T06:07:16;3.33;;;1.55;;
10711;SDS011;5407;51.234;6.804;2022-09-01T06:09:48;3.95;;;1.40;;
10711;SDS011;5407;51.234;6.804;2022-09-01T06:12:20;2.90;;;1.60;;
10711;SDS011;5407;51.234;6.804;2022-09-01T06:14:50;3.50;;;1.42;;
10711;SDS011;5407;51.234;6.804;2022-09-01T06:17:21;2.80;;;1.60;;
10711;SDS011;5407;51.234;6.804;2022-09-01T06:19:50;4.72;;;2.15;;
10711;SDS011;5407;51.234;6.804;2022-09-01T06:22:18;1.63;;;1.30;;
10711;SDS011;5407;51.234;6.804;2022-09-01T06:24:46;4.43;;;1.25;;
10711;SDS011;5407;51.234;6.804;2022-09-01T06:27:13;5.78;;;1.50;;
10711;SDS011;5407;51.234;6.804;2022-09-01T06:29:42;3.28;;;1.45;;
10711;SDS011;5407;51.234;6.804;2022-09-01T06:32:12;6.90;;;1.60;;
10711;SDS011;5407;51.234;6.804;2022-09-01T06:34:41;4.63;;;1.60;;
10711;SDS011;5407;51.234;6.804;2022-09-01T06:37:15;2.50;;;1.58;;
10711;SDS011;5407;51.234;6.804;2022-09-01T06:39:48;2.22;;;1.35;;
10711;SDS011;5407;51.234;6.804;2022-09-01T06:42:15;4.43;;;1.55;;
10711;SDS011;5407;51.234;6.804;2022-09-01T06:44:54;3.80;;;1.73;;
10711;SDS011;5407;51.234;6.804;2022-09-01T06:47:21;2.85;;;1.23;;
10711;SDS011;5407;51.234;6.804;2022-09-01T06:49:50;2.30;;;1.40;;
10711;SDS011;5407;51.234;6.804;2022-09-01T06:52:19;3.92;;;1.27;;
10711;SDS011;5407;51.234;6.804;2022-09-01T06:54:48;3.03;;;1.33;;
10711;SDS011;5407;51.234;6.804;2022-09-01T06:57:17;1.58;;;1.27;;
10711;SDS011;5407;51.234;6.804;2022-09-01T06:59:45;2.17;;;1.30;;
10711;SDS011;5407;51.234;6.804;2022-09-01T07:02:14;7.30;;;1.90;;
10711;SDS011;5407;51.234;6.804;2022-09-01T07:05:07;4.38;;;1.55;;
10711;SDS011;5407;51.234;6.804;2022-09-01T07:07:34;13.32;;;2.35;;
10711;SDS011;5407;51.234;6.804;2022-09-01T07:10:27;8.43;;;2.08;;
10711;SDS011;5407;51.234;6.804;2022-09-01T07:13:11;10.73;;;2.50;;
10711;SDS011;5407;51.234;6.804;2022-09-01T07:15:44;10.85;;;2.78;;
10711;SDS011;5407;51.234;6.804;2022-09-01T07:18:14;21.13;;;3.13;;
10711;SDS011;5407;51.234;6.804;2022-09-01T07:20:44;18.88;;;3.33;;
10711;SDS011;5407;51.234;6.804;2022-09-01T07:23:13;12.77;;;3.10;;
10711;SDS011;5407;51.234;6.804;2022-09-01T07:25:42;19.45;;;2.80;;
10711;SDS011;5407;51.234;6.804;2022-09-01T07:28:21;14.20;;;3.03;;
10711;SDS011;5407;51.234;6.804;2022-09-01T07:30:49;11.93;;;2.60;;
10711;SDS011;5407;51.234;6.804;2022-09-01T07:33:19;16.73;;;2.45;;
10711;SDS011;5407;51.234;6.804;2022-09-01T07:35:51;9.13;;;2.45;;
10711;SDS011;5407;51.234;6.804;2022-09-01T07:38:21;10.85;;;2.20;;
10711;SDS011;5407;51.234;6.804;2022-09-01T07:40:48;8.85;;;2.05;;
10711;SDS011;5407;51.234;6.804;2022-09-01T07:43:36;8.45;;;2.13;;
10711;SDS011;5407;51.234;6.804;2022-09-01T07:46:21;7.72;;;2.00;;
10711;SDS011;5407;51.234;6.804;2022-09-01T07:48:51;6.78;;;1.83;;
10711;SDS011;5407;51.234;6.804;2022-09-01T07:51:22;7.68;;;1.90;;
10711;SDS011;5407;51.234;6.804;2022-09-01T07:53:51;4.47;;;1.70;;
10711;SDS011;5407;51.234;6.804;2022-09-01T07:56:19;3.33;;;1.60;;
10711;SDS011;5407;51.234;6.804;2022-09-01T07:58:49;7.88;;;1.95;;
10711;SDS011;5407;51.234;6.804;2022-09-01T08:01:18;2.92;;;1.55;;
10711;SDS011;5407;51.234;6.804;2022-09-01T08:03:48;4.40;;;1.80;;
10711;SDS011;5407;51.234;6.804;2022-09-01T08:06:20;4.63;;;1.65;;
10711;SDS011;5407;51.234;6.804;2022-09-01T08:08:51;4.10;;;1.38;;
10711;SDS011;5407;51.234;6.804;2022-09-01T08:11:20;3.17;;;1.75;;
10711;SDS011;5407;51.234;6.804;2022-09-01T08:13:51;3.70;;;1.48;;
10711;SDS011;5407;51.234;6.804;2022-09-01T08:16:20;1.80;;;1.38;;
10711;SDS011;5407;51.234;6.804;2022-09-01T08:18:49;4.55;;;1.85;;
10711;SDS011;5407;51.234;6.804;2022-09-01T08:21:27;3.83;;;2.03;;
10711;SDS011;5407;51.234;6.804;2022-09-01T08:23:59;7.05;;;2.30;;
10711;SDS011;5407;51.234;6.804;2022-09-01T08:26:27;8.90;;;1.75;;
10711;SDS011;5407;51.234;6.804;2022-09-01T08:28:54;11.65;;;2.10;;
10711;SDS011;5407;51.234;6.804;2022-09-01T08:31:33;8.82;;;2.30;;
10711;SDS011;5407;51.234;6.804;2022-09-01T08:34:00;5.75;;;1.63;;
10711;SDS011;5407;51.234;6.804;2022-09-01T08:36:31;6.40;;;1.75;;
10711;SDS011;5407;51.234;6.804;2022-09-01T08:38:59;4.10;;;1.63;;
10711;SDS011;5407;51.234;6.804;2022-09-01T08:41:31;4.22;;;1.70;;
10711;SDS011;5407;51.234;6.804;2022-09-01T08:44:08;3.28;;;1.48;;
10711;SDS011;5407;51.234;6.804;2022-09-01T08:46:45;6.28;;;1.50;;
10711;SDS011;5407;51.234;6.804;2022-09-01T08:49:21;5.75;;;1.30;;
10711;SDS011;5407;51.234;6.804;2022-09-01T08:52:13;1.70;;;1.35;;
10711;SDS011;5407;51.234;6.804;2022-09-01T08:54:49;6.85;;;1.52;;
10711;SDS011;5407;51.234;6.804;2022-09-01T08:57:19;4.10;;;1.38;;
10711;SDS011;5407;51.234;6.804;2022-09-01T09:00:09;4.00;;;1.20;;
10711;SDS011;5407;51.234;6.804;2022-09-01T09:02:41;1.95;;;1.20;;
10711;SDS011;5407;51.234;6.804;2022-09-01T09:05:22;3.25;;;1.45;;
10711;SDS011;5407;51.234;6.804;2022-09-01T09:08:01;2.88;;;1.23;;
10711;SDS011;5407;51.234;6.804;2022-09-01T09:10:42;1.77;;;1.27;;
10711;SDS011;5407;51.234;6.804;2022-09-01T09:13:18;10.18;;;1.25;;
10711;SDS011;5407;51.234;6.804;2022-09-01T09:15:50;5.35;;;1.30;;
10711;SDS011;5407;51.234;6.804;2022-09-01T09:18:21;7.93;;;1.63;;
10711;SDS011;5407;51.234;6.804;2022-09-01T09:20:53;4.28;;;1.20;;
10711;SDS011;5407;51.234;6.804;2022-09-01T09:23:25;8.60;;;1.48;;
10711;SDS011;5407;51.234;6.804;2022-09-01T09:25:56;4.68;;;1.42;;
10711;SDS011;5407;51.234;6.804;2022-09-01T09:28:23;1.85;;;1.10;;
10711;SDS011;5407;51.234;6.804;2022-09-01T09:30:50;3.13;;;1.40;;
10711;SDS011;5407;51.234;6.804;2022-09-01T09:33:31;1.55;;;0.90;;
10711;SDS011;5407;51.234;6.804;2022-09-01T09:36:14;5.75;;;1.13;;
10711;SDS011;5407;51.234;6.804;2022-09-01T09:38:44;3.25;;;1.20;;
10711;SDS011;5407;51.234;6.804;2022-09-01T09:41:14;8.65;;;1.20;;
10711;SDS011;5407;51.234;6.804;2022-09-01T09:43:44;3.45;;;1.00;;
10711;SDS011;5407;51.234;6.804;2022-09-01T09:46:23;4.63;;;1.20;;
10711;SDS011;5407;51.234;6.804;2022-09-01T09:49:06;2.20;;;1.20;;
10711;SDS011;5407;51.234;6.804;2022-09-01T09:51:35;2.10;;;1.13;;
10711;SDS011;5407;51.234;6.804;2022-09-01T09:54:11;2.13;;;1.20;;
10711;SDS011;5407;51.234;6.804;2022-09-01T09:56:40;1.77;;;1.15;;
10711;SDS011;5407;51.234;6.804;2022-09-01T09:59:17;1.40;;;0.98;;
10711;SDS011;5407;51.234;6.804;2022-09-01T10:01:47;1.08;;;0.90;;
10711;SDS011;5407;51.234;6.804;2022-09-01T10:07:21;1.55;;;1.00;;
10711;SDS011;5407;51.234;6.804;2022-09-01T10:09:52;2.05;;;1.00;;
10711;SDS011;5407;51.234;6.804;2022-09-01T10:12:21;1.77;;;0.90;;
10711;SDS011;5407;51.234;6.804;2022-09-01T10:14:50;1.10;;;1.00;;
10711;SDS011;5407;51.234;6.804;2022-09-01T10:17:20;1.27;;;1.17;;
10711;SDS011;5407;51.234;6.804;2022-09-01T10:19:52;1.20;;;1.08;;
10711;SDS011;5407;51.234;6.804;2022-09-01T10:22:22;1.95;;;0.98;;
10711;SDS011;5407;51.234;6.804;2022-09-01T10:24:52;4.50;;;1.20;;
10711;SDS011;5407;51.234;6.804;2022-09-01T10:27:19;0.75;;;0.75;;
10711;SDS011;5407;51.234;6.804;2022-09-01T10:29:52;15.13;;;1.60;;
10711;SDS011;5407;51.234;6.804;2022-09-01T10:32:24;5.15;;;1.13;;
10711;SDS011;5407;51.234;6.804;2022-09-01T10:34:55;2.33;;;1.17;;
10711;SDS011;5407;51.234;6.804;2022-09-01T10:37:22;2.45;;;0.90;;
10711;SDS011;5407;51.234;6.804;2022-09-01T10:40:11;2.85;;;1.02;;
10711;SDS011;5407;51.234;6.804;2022-09-01T10:42:44;1.83;;;1.05;;
10711;SDS011;5407;51.234;6.804;2022-09-01T10:45:15;3.70;;;1.10;;
10711;SDS011;5407;51.234;6.804;2022-09-01T10:47:45;1.02;;;0.90;;
10711;SDS011;5407;51.234;6.804;2022-09-01T10:50:22;3.28;;;1.10;;
10711;SDS011;5407;51.234;6.804;2022-09-01T10:52:54;3.28;;;1.00;;
10711;SDS011;5407;51.234;6.804;2022-09-01T10:55:25;1.48;;;1.08;;
10711;SDS011;5407;51.234;6.804;2022-09-01T11:01:16;2.15;;;1.10;;
10711;SDS011;5407;51.234;6.804;2022-09-01T11:09:19;1.83;;;1.00;;
10711;SDS011;5407;51.234;6.804;2022-09-01T11:11:54;1.55;;;1.17;;
10711;SDS011;5407;51.234;6.804;2022-09-01T11:14:34;1.00;;;0.95;;
10711;SDS011;5407;51.234;6.804;2022-09-01T11:17:15;2.83;;;0.90;;
10711;SDS011;5407;51.234;6.804;2022-09-01T11:19:45;1.45;;;0.80;;
10711;SDS011;5407;51.234;6.804;2022-09-01T11:22:22;1.02;;;0.90;;
10711;SDS011;5407;51.234;6.804;2022-09-01T11:25:09;1.13;;;0.95;;
10711;SDS011;5407;51.234;6.804;2022-09-01T11:28:03;0.70;;;0.70;;
10711;SDS011;5407;51.234;6.804;2022-09-01T11:30:38;1.20;;;1.05;;
10711;SDS011;5407;51.234;6.804;2022-09-01T11:33:23;1.40;;;1.08;;
10711;SDS011;5407;51.234;6.804;2022-09-01T11:35:59;1.92;;;0.90;;
10711;SDS011;5407;51.234;6.804;2022-09-01T11:38:28;1.05;;;1.00;;
10711;SDS011;5407;51.234;6.804;2022-09-01T11:40:59;9.85;;;1.00;;
10711;SDS011;5407;51.234;6.804;2022-09-01T11:43:27;1.13;;;1.10;;
10711;SDS011;5407;51.234;6.804;2022-09-01T11:45:58;6.28;;;1.10;;
10711;SDS011;5407;51.234;6.804;2022-09-01T11:48:34;0.95;;;0.82;;
10711;SDS011;5407;51.234;6.804;2022-09-01T11:51:02;0.80;;;0.80;;
10711;SDS011;5407;51.234;6.804;2022-09-01T11:53:29;2.45;;;0.95;;
10711;SDS011;5407;51.234;6.804;2022-09-01T11:56:10;1.90;;;1.10;;
10711;SDS011;5407;51.234;6.804;2022-09-01T11:58:41;1.15;;;0.90;;
10711;SDS011;5407;51.234;6.804;2022-09-01T12:01:13;2.55;;;1.10;;
10711;SDS011;5407;51.234;6.804;2022-09-01T12:03:41;2.10;;;0.95;;
10711;SDS011;5407;51.234;6.804;2022-09-01T12:06:10;0.93;;;0.93;;
10711;SDS011;5407;51.234;6.804;2022-09-01T12:08:49;0.90;;;0.90;;
10711;SDS011;5407;51.234;6.804;2022-09-01T12:11:20;1.08;;;0.82;;
10711;SDS011;5407;51.234;6.804;2022-09-01T12:13:57;1.55;;;0.95;;
10711;SDS011;5407;51.234;6.804;2022-09-01T12:16:26;0.95;;;0.88;;
10711;SDS011;5407;51.234;6.804;2022-09-01T12:18:54;1.08;;;1.00;;
10711;SDS011;5407;51.234;6.804;2022-09-01T12:21:24;0.77;;;0.77;;
10711;SDS011;5407;51.234;6.804;2022-09-01T12:23:53;0.90;;;0.90;;
10711;SDS011;5407;51.234;6.804;2022-09-01T12:26:35;1.25;;;0.77;;
10711;SDS011;5407;51.234;6.804;2022-09-01T12:29:05;1.40;;;0.95;;
10711;SDS011;5407;51.234;6.804;2022-09-01T12:31:32;0.90;;;0.90;;
10711;SDS011;5407;51.234;6.804;2022-09-01T12:34:00;1.00;;;0.90;;
10711;SDS011;5407;51.234;6.804;2022-09-01T12:36:30;1.02;;;0.90;;
10711;SDS011;5407;51.234;6.804;2022-09-01T12:41:59;1.05;;;0.70;;
10711;SDS011;5407;51.234;6.804;2022-09-01T12:44:30;1.15;;;0.88;;
10711;SDS011;5407;51.234;6.804;2022-09-01T12:46:59;1.00;;;1.00;;
10711;SDS011;5407;51.234;6.804;2022-09-01T12:49:36;1.30;;;0.95;;
10711;SDS011;5407;51.234;6.804;2022-09-01T12:52:10;1.20;;;0.90;;
10711;SDS011;5407;51.234;6.804;2022-09-01T12:54:41;1.05;;;0.95;;
10711;SDS011;5407;51.234;6.804;2022-09-01T12:57:23;0.65;;;0.65;;
10711;SDS011;5407;51.234;6.804;2022-09-01T13:00:06;1.63;;;0.90;;
10711;SDS011;5407;51.234;6.804;2022-09-01T13:02:40;0.80;;;0.80;;
10711;SDS011;5407;51.234;6.804;2022-09-01T13:05:25;0.98;;;0.70;;
10711;SDS011;5407;51.234;6.804;2022-09-01T13:07:55;1.02;;;1.00;;
10711;SDS011;5407;51.234;6.804;2022-09-01T13:10:24;0.90;;;0.90;;
10711;SDS011;5407;51.234;6.804;2022-09-01T13:12:54;1.20;;;1.10;;
10711;SDS011;5407;51.234;6.804;2022-09-01T13:15:23;1.00;;;1.00;;
10711;SDS011;5407;51.234;6.804;2022-09-01T13:17:52;2.08;;;0.80;;
10711;SDS011;5407;51.234;6.804;2022-09-01T13:20:19;1.20;;;1.10;;
10711;SDS011;5407;51.234;6.804;2022-09-01T13:22:46;2.33;;;1.10;;
10711;SDS011;5407;51.234;6.804;2022-09-01T13:25:14;1.17;;;1.08;;
10711;SDS011;5407;51.234;6.804;2022-09-01T13:27:42;1.05;;;1.00;;
10711;SDS011;5407;51.234;6.804;2022-09-01T13:30:12;1.20;;;1.10;;
10711;SDS011;5407;51.234;6.804;2022-09-01T13:32:42;0.82;;;0.82;;
10711;SDS011;5407;51.234;6.804;2022-09-01T13:35:10;1.00;;;1.00;;
10711;SDS011;5407;51.234;6.804;2022-09-01T13:37:39;1.27;;;1.10;;
10711;SDS011;5407;51.234;6.804;2022-09-01T13:40:07;1.92;;;1.00;;
10711;SDS011;5407;51.234;6.804;2022-09-01T13:42:39;2.78;;;0.95;;
10711;SDS011;5407;51.234;6.804;2022-09-01T13:45:07;1.23;;;0.90;;
10711;SDS011;5407;51.234;6.804;2022-09-01T13:47:37;1.05;;;1.00;;
10711;SDS011;5407;51.234;6.804;2022-09-01T13:50:06;1.58;;;0.77;;
10711;SDS011;5407;51.234;6.804;2022-09-01T13:52:34;1.10;;;1.00;;
10711;SDS011;5407;51.234;6.804;2022-09-01T13:55:01;1.08;;;1.00;;
10711;SDS011;5407;51.234;6.804;2022-09-01T13:57:29;1.77;;;1.08;;
10711;SDS011;5407;51.234;6.804;2022-09-01T13:59:58;1.15;;;1.08;;
10711;SDS011;5407;51.234;6.804;2022-09-01T14:02:25;1.15;;;1.10;;
10711;SDS011;5407;51.234;6.804;2022-09-01T14:04:52;1.48;;;1.05;;
10711;SDS011;5407;51.234;6.804;2022-09-01T14:07:21;1.13;;;1.00;;
10711;SDS011;5407;51.234;6.804;2022-09-01T14:09:48;0.90;;;0.90;;
10711;SDS011;5407;51.234;6.804;2022-09-01T14:12:15;2.03;;;0.95;;
10711;SDS011;5407;51.234;6.804;2022-09-01T14:14:42;1.17;;;1.08;;
10711;SDS011;5407;51.234;6.804;2022-09-01T14:17:09;1.00;;;1.00;;
10711;SDS011;5407;51.234;6.804;2022-09-01T14:19:36;1.42;;;1.10;;
10711;SDS011;5407;51.234;6.804;2022-09-01T14:22:03;1.27;;;1.17;;
10711;SDS011;5407;51.234;6.804;2022-09-01T14:24:32;1.63;;;1.15;;
10711;SDS011;5407;51.234;6.804;2022-09-01T14:27:00;1.00;;;1.00;;
10711;SDS011;5407;51.234;6.804;2022-09-01T14:29:27;1.85;;;1.10;;
10711;SDS011;5407;51.234;6.804;2022-09-01T14:31:54;2.10;;;1.15;;
10711;SDS011;5407;51.234;6.804;2022-09-01T14:34:21;4.32;;;1.00;;
10711;SDS011;5407;51.234;6.804;2022-09-01T14:36:49;1.48;;;1.00;;
10711;SDS011;5407;51.234;6.804;2022-09-01T14:39:19;0.93;;;0.90;;
10711;SDS011;5407;51.234;6.804;2022-09-01T14:41:47;1.05;;;0.98;;
10711;SDS011;5407;51.234;6.804;2022-09-01T14:44:14;1.30;;;1.20;;
10711;SDS011;5407;51.234;6.804;2022-09-01T14:46:41;1.40;;;1.20;;
10711;SDS011;5407;51.234;6.804;2022-09-01T14:49:09;1.83;;;0.90;;
10711;SDS011;5407;51.234;6.804;2022-09-01T14:51:36;1.17;;;0.98;;
10711;SDS011;5407;51.234;6.804;2022-09-01T14:54:03;1.63;;;1.17;;
10711;SDS011;5407;51.234;6.804;2022-09-01T14:56:31;5.22;;;1.40;;
10711;SDS011;5407;51.234;6.804;2022-09-01T14:58:59;2.55;;;1.40;;
10711;SDS011;5407;51.234;6.804;2022-09-01T15:01:26;1.67;;;1.20;;
10711;SDS011;5407;51.234;6.804;2022-09-01T15:03:54;2.85;;;1.52;;
10711;SDS011;5407;51.234;6.804;2022-09-01T15:06:21;1.83;;;1.33;;
10711;SDS011;5407;51.234;6.804;2022-09-01T15:08:49;4.20;;;1.40;;
10711;SDS011;5407;51.234;6.804;2022-09-01T15:11:17;2.35;;;1.30;;
10711;SDS011;5407;51.234;6.804;2022-09-01T15:13:45;2.30;;;1.30;;
10711;SDS011;5407;51.234;6.804;2022-09-01T15:16:14;1.58;;;1.40;;
10711;SDS011;5407;51.234;6.804;2022-09-01T15:18:42;1.48;;;1.20;;
10711;SDS011;5407;51.234;6.804;2022-09-01T15:21:16;1.63;;;1.20;;
10711;SDS011;5407;51.234;6.804;2022-09-01T15:23:44;1.45;;;1.33;;
10711;SDS011;5407;51.234;6.804;2022-09-01T15:26:12;1.10;;;1.10;;
10711;SDS011;5407;51.234;6.804;2022-09-01T15:28:41;1.20;;;1.10;;
10711;SDS011;5407;51.234;6.804;2022-09-01T15:31:08;1.60;;;1.30;;
10711;SDS011;5407;51.234;6.804;2022-09-01T15:33:38;2.60;;;1.40;;
10711;SDS011;5407;51.234;6.804;2022-09-01T15:36:06;2.40;;;1.20;;
10711;SDS011;5407;51.234;6.804;2022-09-01T15:38:33;3.72;;;1.40;;